createdAt,value
2022-12-08T00:00:17.622Z,100726.67
2022-12-08T00:03:07.942Z,100725.13
2022-12-08T00:06:16.786Z,100724.77
2022-12-08T00:09:26.330Z,100723.73
2022-12-08T00:12:18.244Z,100715.07
2022-12-08T00:15:10.891Z,100716.64
2022-12-08T00:18:02.048Z,100711.14
2022-12-08T00:20:58.167Z,100710.47
2022-12-08T00:23:48.578Z,100711.64
2022-12-08T00:26:39.875Z,100714.39
2022-12-08T00:29:31.678Z,100712.27
2022-12-08T00:32:23.383Z,100709.38
2022-12-08T00:35:14.044Z,100704.30
2022-12-08T00:38:05.078Z,100705.73
2022-12-08T00:40:56.027Z,100708.23
2022-12-08T00:43:47.267Z,100710.95
2022-12-08T00:46:38.397Z,100710.27
2022-12-08T00:49:28.938Z,100713.41
2022-12-08T00:52:19.611Z,100712.85
2022-12-08T00:55:12.988Z,100706.77
2022-12-08T00:58:03.771Z,100711.67
2022-12-08T01:00:54.614Z,100713.68
2022-12-08T01:03:45.859Z,100713.07
2022-12-08T01:06:38.144Z,100718.41
2022-12-08T01:09:29.300Z,100721.57
2022-12-08T01:12:20.038Z,100723.46
2022-12-08T01:15:11.947Z,100727.45
2022-12-08T01:18:02.686Z,100726.27
2022-12-08T01:20:53.178Z,100720.13
2022-12-08T01:23:43.941Z,100718.36
2022-12-08T01:26:33.904Z,100716.56
2022-12-08T01:29:25.113Z,100719.67
2022-12-08T01:32:15.404Z,100720.61
2022-12-08T01:35:06.480Z,100724.27
2022-12-08T01:37:57.234Z,100726.71
2022-12-08T01:40:47.911Z,100723.44
2022-12-08T01:43:58.486Z,100719.35
2022-12-08T01:46:49.589Z,100719.09
2022-12-08T01:49:40.201Z,100715.23
2022-12-08T01:52:37.043Z,100712.92
2022-12-08T01:55:32.453Z,100712.38
2022-12-08T01:58:26.629Z,100718.88
2022-12-08T02:01:17.601Z,100720.06
2022-12-08T02:04:08.693Z,100721.52
2022-12-08T02:07:06.397Z,100719.80
2022-12-08T02:09:59.029Z,100721.04
2022-12-08T02:12:52.127Z,100719.41
2022-12-08T02:15:48.932Z,100722.36
2022-12-08T02:19:14.796Z,100724.34
2022-12-08T02:22:06.537Z,100719.06
2022-12-08T02:25:05.715Z,100718.83
2022-12-08T02:28:12.823Z,100716.67
2022-12-08T02:31:12.602Z,100714.67
2022-12-08T02:34:26.527Z,100712.56
2022-12-08T02:37:25.388Z,100708.31
2022-12-08T02:40:22.827Z,100713.48
2022-12-08T02:43:21.754Z,100714.09
2022-12-08T02:46:17.605Z,100707.17
2022-12-08T02:49:09.387Z,100706.48
2022-12-08T02:52:21.970Z,100705.67
2022-12-08T02:55:20.414Z,100704.52
2022-12-08T02:58:42.926Z,100704.20
2022-12-08T03:01:54.204Z,100706.61
2022-12-08T03:04:55.237Z,100705.52
2022-12-08T03:07:54.887Z,100705.20
2022-12-08T03:10:48.207Z,100697.40
2022-12-08T03:13:43.599Z,100697.00
2022-12-08T03:16:38.439Z,100695.81
2022-12-08T03:19:32.831Z,100680.38
2022-12-08T03:22:26.947Z,100679.10
2022-12-08T03:25:20.138Z,100678.39
2022-12-08T03:28:10.528Z,100676.73
2022-12-08T03:31:06.409Z,100670.95
2022-12-08T03:33:59.925Z,100670.66
2022-12-08T03:36:49.931Z,100662.41
2022-12-08T03:39:39.837Z,100657.45
2022-12-08T03:42:29.817Z,100662.59
2022-12-08T03:45:20.082Z,100663.09
2022-12-08T03:48:10.671Z,100663.53
2022-12-08T03:51:00.871Z,100661.35
2022-12-08T03:53:51.804Z,100658.86
2022-12-08T03:56:41.860Z,100656.81
2022-12-08T03:59:32.321Z,100658.30
2022-12-08T04:02:22.855Z,100660.95
2022-12-08T04:05:13.758Z,100661.22
2022-12-08T04:08:04.214Z,100659.98
2022-12-08T04:10:54.141Z,100660.86
2022-12-08T04:13:45.161Z,100661.26
2022-12-08T04:16:34.952Z,100662.57
2022-12-08T04:19:24.510Z,100664.30
2022-12-08T04:22:14.666Z,100666.44
2022-12-08T04:25:05.304Z,100667.54
2022-12-08T04:27:56.455Z,100670.84
2022-12-08T04:30:47.107Z,100673.38
2022-12-08T04:33:37.193Z,100671.66
2022-12-08T04:36:27.227Z,100672.30
2022-12-08T04:39:17.318Z,100667.19
2022-12-08T04:42:07.422Z,100670.79
2022-12-08T04:44:57.589Z,100673.52
2022-12-08T04:47:47.840Z,100673.20
2022-12-08T04:50:40.154Z,100673.02
2022-12-08T04:53:30.979Z,100665.77
2022-12-08T04:56:21.876Z,100660.59
2022-12-08T04:59:11.825Z,100665.91
2022-12-08T05:02:02.512Z,100662.65
2022-12-08T05:04:53.098Z,100659.48
2022-12-08T05:07:43.534Z,100656.57
2022-12-08T05:10:34.182Z,100656.59
2022-12-08T05:13:24.079Z,100657.48
2022-12-08T05:16:16.497Z,100651.77
2022-12-08T05:19:07.071Z,100655.80
2022-12-08T05:21:57.078Z,100660.89
2022-12-08T05:24:47.821Z,100658.36
2022-12-08T05:27:39.248Z,100657.24
2022-12-08T05:30:29.684Z,100655.84
2022-12-08T05:33:20.660Z,100655.98
2022-12-08T05:36:13.385Z,100658.92
2022-12-08T05:39:04.008Z,100660.77
2022-12-08T05:41:54.320Z,100662.73
2022-12-08T05:44:44.841Z,100658.89
2022-12-08T05:47:36.362Z,100663.69
2022-12-08T05:50:26.649Z,100663.28
2022-12-08T05:53:19.470Z,100662.04
2022-12-08T05:56:12.249Z,100662.36
2022-12-08T05:59:02.535Z,100660.81
2022-12-08T06:01:52.818Z,100657.84
2022-12-08T06:04:43.364Z,100656.87
2022-12-08T06:07:33.552Z,100650.81
2022-12-08T06:10:23.694Z,100648.80
2022-12-08T06:13:14.629Z,100644.30
2022-12-08T06:16:08.360Z,100645.51
2022-12-08T06:18:58.678Z,100642.92
2022-12-08T06:21:49.013Z,100638.38
2022-12-08T06:24:39.468Z,100639.20
2022-12-08T06:27:30.403Z,100638.65
2022-12-08T06:30:21.471Z,100635.05
2022-12-08T06:33:11.974Z,100634.60
2022-12-08T06:36:03.090Z,100635.16
2022-12-08T06:38:53.215Z,100634.15
2022-12-08T06:41:57.342Z,100639.39
2022-12-08T06:44:47.908Z,100638.27
2022-12-08T06:47:37.916Z,100644.98
2022-12-08T06:50:28.785Z,100649.94
2022-12-08T06:53:19.654Z,100649.71
2022-12-08T06:56:11.302Z,100652.48
2022-12-08T06:59:02.138Z,100652.25
2022-12-08T07:01:52.586Z,100653.06
2022-12-08T07:04:43.536Z,100661.21
2022-12-08T07:07:34.128Z,100660.83
2022-12-08T07:10:24.551Z,100665.29
2022-12-08T07:13:14.711Z,100667.41
2022-12-08T07:16:09.133Z,100674.23
2022-12-08T07:18:59.397Z,100676.99
2022-12-08T07:21:49.552Z,100672.08
2022-12-08T07:24:40.041Z,100670.13
2022-12-08T07:27:29.819Z,100668.05
2022-12-08T07:30:20.476Z,100666.57
2022-12-08T07:33:10.667Z,100663.90
2022-12-08T07:36:02.429Z,100662.80
2022-12-08T07:38:54.401Z,100665.50
2022-12-08T07:41:44.774Z,100670.27
2022-12-08T07:44:35.358Z,100671.27
2022-12-08T07:47:25.549Z,100671.23
2022-12-08T07:50:15.538Z,100668.77
2022-12-08T07:53:05.741Z,100666.93
2022-12-08T07:55:55.654Z,100671.91
2022-12-08T07:58:46.930Z,100673.59
2022-12-08T08:01:37.460Z,100672.77
2022-12-08T08:04:27.760Z,100673.04
2022-12-08T08:07:18.048Z,100673.83
2022-12-08T08:10:10.060Z,100677.81
2022-12-08T08:13:02.992Z,100679.56
2022-12-08T08:15:53.153Z,100674.91
2022-12-08T08:18:43.619Z,100676.92
2022-12-08T08:21:48.664Z,100680.89
2022-12-08T08:24:43.222Z,100683.71
2022-12-08T08:27:35.379Z,100683.95
2022-12-08T08:30:26.023Z,100689.28
2022-12-08T08:33:16.577Z,100690.05
2022-12-08T08:36:10.632Z,100694.20
2022-12-08T08:39:01.149Z,100692.73
2022-12-08T08:41:51.163Z,100696.83
2022-12-08T08:44:41.535Z,100696.43
2022-12-08T08:47:31.361Z,100699.64
2022-12-08T08:50:21.400Z,100698.73
2022-12-08T08:53:12.064Z,100701.79
2022-12-08T08:56:03.453Z,100700.99
2022-12-08T08:58:55.203Z,100698.63
2022-12-08T09:01:45.109Z,100697.23
2022-12-08T09:04:36.063Z,100695.00
2022-12-08T09:07:26.538Z,100702.77
2022-12-08T09:10:17.783Z,100703.61
2022-12-08T09:13:07.683Z,100703.94
2022-12-08T09:15:58.139Z,100707.55
2022-12-08T09:18:49.619Z,100714.49
2022-12-08T09:21:40.755Z,100709.94
2022-12-08T09:24:30.722Z,100712.73
2022-12-08T09:27:21.714Z,100708.85
2022-12-08T09:30:14.869Z,100710.20
2022-12-08T09:33:05.296Z,100713.71
2022-12-08T09:35:55.497Z,100710.37
2022-12-08T09:38:46.697Z,100711.33
2022-12-08T09:41:44.771Z,100713.28
2022-12-08T09:44:57.447Z,100714.65
2022-12-08T09:47:55.882Z,100710.52
2022-12-08T09:50:52.899Z,100708.72
2022-12-08T09:53:50.272Z,100704.19
2022-12-08T09:56:41.016Z,100692.98
2022-12-08T09:59:33.804Z,100693.11
2022-12-08T10:02:26.709Z,100695.73
2022-12-08T10:05:17.850Z,100693.63
2022-12-08T10:08:18.277Z,100687.33
2022-12-08T10:11:15.093Z,100683.55
2022-12-08T10:14:16.917Z,100683.60
2022-12-08T10:17:14.489Z,100684.29
2022-12-08T10:20:11.837Z,100681.23
2022-12-08T10:23:10.589Z,100674.77
2022-12-08T10:26:05.655Z,100675.34
2022-12-08T10:29:01.247Z,100671.93
2022-12-08T10:31:51.125Z,100666.18
2022-12-08T10:35:02.798Z,100663.84
2022-12-08T10:38:00.774Z,100663.02
2022-12-08T10:40:53.041Z,100656.73
2022-12-08T10:43:49.057Z,100647.23
2022-12-08T10:46:41.345Z,100637.52
2022-12-08T10:49:35.619Z,100639.19
2022-12-08T10:52:27.071Z,100635.48
2022-12-08T10:55:19.926Z,100635.23
2022-12-08T10:58:27.010Z,100638.39
2022-12-08T11:01:22.096Z,100633.22
2022-12-08T11:04:18.452Z,100627.94
2022-12-08T11:07:11.800Z,100621.77
2022-12-08T11:10:03.292Z,100620.27
2022-12-08T11:12:53.414Z,100616.19
2022-12-08T11:15:45.879Z,100614.21
2022-12-08T11:18:45.093Z,100616.20
2022-12-08T11:21:38.708Z,100611.27
2022-12-08T11:24:36.056Z,100611.41
2022-12-08T11:27:28.181Z,100616.21
2022-12-08T11:30:21.072Z,100612.31
2022-12-08T11:33:18.799Z,100611.05
2022-12-08T11:36:14.191Z,100613.96
2022-12-08T11:39:07.843Z,100611.64
2022-12-08T11:42:01.102Z,100608.13
2022-12-08T11:44:56.539Z,100605.69
2022-12-08T11:47:55.986Z,100603.45
2022-12-08T11:50:53.126Z,100601.30
2022-12-08T11:53:53.795Z,100598.02
2022-12-08T11:56:48.637Z,100598.10
2022-12-08T11:59:44.574Z,100596.66
2022-12-08T12:02:42.848Z,100591.23
2022-12-08T12:09:05.915Z,100583.05
2022-12-08T12:12:17.035Z,100581.23
2022-12-08T12:15:49.903Z,100580.42
2022-12-08T12:18:46.659Z,100585.65
2022-12-08T12:21:40.977Z,100573.98
2022-12-08T12:24:39.825Z,100570.91
2022-12-08T12:27:37.102Z,100562.14
2022-12-08T12:30:29.624Z,100556.35
2022-12-08T12:33:21.686Z,100560.02
2022-12-08T12:36:15.230Z,100565.05
2022-12-08T12:39:06.425Z,100561.87
2022-12-08T12:41:59.440Z,100558.36
2022-12-08T12:45:10.159Z,100556.75
2022-12-08T12:48:22.116Z,100559.40
2022-12-08T12:51:45.608Z,100562.73
2022-12-08T12:54:36.560Z,100558.48
2022-12-08T12:57:36.738Z,100554.48
2022-12-08T13:00:29.348Z,100550.83
2022-12-08T13:03:20.930Z,100549.13
2022-12-08T13:06:14.928Z,100544.34
2022-12-08T13:09:07.378Z,100546.44
2022-12-08T13:12:01.412Z,100551.16
2022-12-08T13:14:56.028Z,100547.02
2022-12-08T13:17:49.471Z,100539.55
2022-12-08T13:20:48.530Z,100544.96
2022-12-08T13:23:50.932Z,100547.73
2022-12-08T13:26:47.227Z,100543.69
2022-12-08T13:29:38.987Z,100543.28
2022-12-08T13:36:24.171Z,100536.30
2022-12-08T13:39:21.894Z,100538.93
2022-12-08T13:42:21.550Z,100545.16
2022-12-08T13:45:39.748Z,100549.04
2022-12-08T13:49:36.600Z,100545.62
2022-12-08T13:58:17.263Z,100537.48
2022-12-08T14:01:13.406Z,100528.55
2022-12-08T14:04:34.228Z,100523.20
2022-12-08T14:07:16.326Z,100523.33
2022-12-08T14:10:09.006Z,100525.19
2022-12-08T14:13:02.310Z,100524.58
2022-12-08T14:15:52.897Z,100524.61
2022-12-08T14:18:43.520Z,100521.95
2022-12-08T14:21:36.387Z,100526.23
2022-12-08T14:24:29.066Z,100526.48
2022-12-08T14:27:21.961Z,100526.45
2022-12-08T14:30:21.623Z,100529.98
2022-12-08T14:33:17.035Z,100530.04
2022-12-08T14:36:11.013Z,100536.95
2022-12-08T14:39:01.812Z,100532.35
2022-12-08T14:42:03.616Z,100537.00
2022-12-08T14:45:02.480Z,100542.77
2022-12-08T14:47:52.963Z,100543.05
2022-12-08T14:50:57.637Z,100539.87
2022-12-08T14:53:54.695Z,100541.97
2022-12-08T14:56:52.143Z,100546.55
2022-12-08T14:59:44.058Z,100554.23
2022-12-08T15:02:35.837Z,100549.59
2022-12-08T15:05:30.740Z,100546.67
2022-12-08T15:08:21.502Z,100541.84
2022-12-08T15:11:28.869Z,100534.66
2022-12-08T15:14:34.864Z,100531.61
2022-12-08T15:17:42.103Z,100533.17
2022-12-08T15:20:41.413Z,100539.14
2022-12-08T15:23:33.711Z,100538.70
2022-12-08T15:26:25.678Z,100533.00
2022-12-08T15:29:20.727Z,100532.73
2022-12-08T15:32:14.493Z,100526.98
2022-12-08T15:35:04.909Z,100530.04
2022-12-08T15:37:55.216Z,100543.61
2022-12-08T15:40:46.276Z,100548.97
2022-12-08T15:43:37.603Z,100548.61
2022-12-08T15:46:28.855Z,100551.38
2022-12-08T15:49:23.059Z,100551.61
2022-12-08T15:52:17.632Z,100550.94
2022-12-08T15:55:13.353Z,100543.63
2022-12-08T15:58:51.835Z,100532.80
2022-12-08T16:01:15.388Z,100528.77
2022-12-08T16:04:37.246Z,100529.91
2022-12-08T16:07:23.495Z,100532.98
2022-12-08T16:10:19.926Z,100528.30
2022-12-08T16:13:56.646Z,100524.92
2022-12-08T16:16:44.946Z,100526.02
2022-12-08T16:19:35.552Z,100529.98
2022-12-08T16:26:09.056Z,100533.05
2022-12-08T16:28:54.377Z,100539.58
2022-12-08T16:31:45.482Z,100541.27
2022-12-08T16:34:35.865Z,100540.54
2022-12-08T16:37:28.868Z,100539.67
2022-12-08T16:40:20.058Z,100541.23
2022-12-08T16:43:12.206Z,100539.90
2022-12-08T16:46:03.380Z,100535.67
2022-12-08T16:48:53.437Z,100531.58
2022-12-08T16:51:45.186Z,100531.41
2022-12-08T16:54:36.229Z,100522.64
2022-12-08T16:57:26.512Z,100526.77
2022-12-08T17:00:20.690Z,100524.16
2022-12-08T17:03:15.177Z,100520.44
2022-12-08T17:06:09.131Z,100520.22
2022-12-08T17:08:59.191Z,100513.35
2022-12-08T17:11:49.651Z,100514.30
2022-12-08T17:14:40.410Z,100510.80
2022-12-08T17:17:30.888Z,100520.70
2022-12-08T17:20:23.397Z,100521.09
2022-12-08T17:23:13.494Z,100519.58
2022-12-08T17:26:04.165Z,100516.00
2022-12-08T17:29:01.930Z,100509.81
2022-12-08T17:31:51.652Z,100512.26
2022-12-08T17:34:41.168Z,100514.61
2022-12-08T17:37:32.708Z,100513.70
2022-12-08T17:40:26.861Z,100512.70
2022-12-08T17:43:18.912Z,100514.48
2022-12-08T17:46:09.376Z,100511.72
2022-12-08T17:49:00.206Z,100511.50
2022-12-08T17:51:51.972Z,100511.86
2022-12-08T17:54:42.497Z,100509.67
2022-12-08T17:57:32.498Z,100508.58
2022-12-08T18:00:23.372Z,100510.82
2022-12-08T18:03:13.540Z,100507.62
2022-12-08T18:06:09.093Z,100507.52
2022-12-08T18:08:59.692Z,100516.89
2022-12-08T18:11:50.788Z,100513.63
2022-12-08T18:14:41.518Z,100509.11
2022-12-08T18:17:32.353Z,100507.79
2022-12-08T18:20:22.852Z,100509.30
2022-12-08T18:23:13.885Z,100512.46
2022-12-08T18:26:04.920Z,100519.22
2022-12-08T18:28:55.320Z,100515.88
2022-12-08T18:31:45.452Z,100512.80
2022-12-08T18:34:36.357Z,100517.66
2022-12-08T18:37:26.372Z,100517.49
2022-12-08T18:40:19.261Z,100519.82
2022-12-08T18:43:09.750Z,100521.91
2022-12-08T18:46:06.058Z,100518.05
2022-12-08T18:48:56.624Z,100515.02
2022-12-08T18:51:47.147Z,100511.29
2022-12-08T18:55:05.383Z,100508.70
2022-12-08T18:57:47.709Z,100503.34
2022-12-08T19:00:38.202Z,100497.54
2022-12-08T19:03:28.775Z,100496.27
2022-12-08T19:06:19.277Z,100492.85
2022-12-08T19:09:10.135Z,100490.06
2022-12-08T19:12:00.018Z,100491.12
2022-12-08T19:14:50.839Z,100488.82
2022-12-08T19:17:41.556Z,100487.11
2022-12-08T19:20:32.251Z,100485.95
2022-12-08T19:23:22.635Z,100479.46
2022-12-08T19:26:14.770Z,100477.78
2022-12-08T19:29:04.975Z,100482.10
2022-12-08T19:31:55.232Z,100476.61
2022-12-08T19:34:45.092Z,100473.91
2022-12-08T19:37:35.677Z,100473.23
2022-12-08T19:40:43.702Z,100469.30
2022-12-08T19:43:48.064Z,100469.83
2022-12-08T19:46:40.575Z,100469.88
2022-12-08T19:49:31.228Z,100469.70
2022-12-08T19:52:22.385Z,100470.29
2022-12-08T19:55:13.858Z,100471.76
2022-12-08T19:58:04.266Z,100474.39
2022-12-08T20:00:56.869Z,100478.03
2022-12-08T20:03:47.488Z,100479.86
2022-12-08T20:06:38.028Z,100478.64
2022-12-08T20:09:28.466Z,100479.47
2022-12-08T20:12:18.397Z,100477.33
2022-12-08T20:15:11.196Z,100477.85
2022-12-08T20:18:03.170Z,100478.50
2022-12-08T20:20:53.718Z,100475.40
2022-12-08T20:23:45.900Z,100480.77
2022-12-08T20:26:35.897Z,100484.52
2022-12-08T20:29:26.374Z,100486.02
2022-12-08T20:32:17.078Z,100484.03
2022-12-08T20:35:10.187Z,100483.65
2022-12-08T20:38:00.862Z,100477.84
2022-12-08T20:40:51.717Z,100473.64
2022-12-08T20:43:42.413Z,100478.60
2022-12-08T20:46:34.659Z,100480.52
2022-12-08T20:49:29.755Z,100478.55
2022-12-08T20:52:23.385Z,100477.78
2022-12-08T20:55:13.985Z,100479.77
2022-12-08T20:58:04.404Z,100480.51
2022-12-08T21:00:54.813Z,100477.14
2022-12-08T21:03:45.510Z,100476.54
2022-12-08T21:06:36.393Z,100472.45
2022-12-08T21:09:27.007Z,100475.35
2022-12-08T21:12:18.471Z,100480.06
2022-12-08T21:15:12.856Z,100486.31
2022-12-08T21:18:03.638Z,100494.94
2022-12-08T21:20:55.007Z,100498.58
2022-12-08T21:23:45.364Z,100498.40
2022-12-08T21:26:35.154Z,100494.98
2022-12-08T21:29:25.456Z,100494.20
2022-12-08T21:32:15.419Z,100494.53
2022-12-08T21:35:06.803Z,100489.04
2022-12-08T21:37:56.809Z,100482.09
2022-12-08T21:40:47.607Z,100472.74
2022-12-08T21:43:38.857Z,100475.42
2022-12-08T21:46:28.726Z,100477.09
2022-12-08T21:49:19.875Z,100472.14
2022-12-08T21:52:09.810Z,100470.07
2022-12-08T21:55:00.336Z,100464.83
2022-12-08T21:57:50.890Z,100463.26
2022-12-08T22:00:41.379Z,100465.84
2022-12-08T22:03:32.019Z,100464.54
2022-12-08T22:06:22.505Z,100458.52
2022-12-08T22:09:13.677Z,100454.96
2022-12-08T22:12:04.307Z,100454.20
2022-12-08T22:14:54.478Z,100454.48
2022-12-08T22:17:45.642Z,100454.43
2022-12-08T22:20:40.852Z,100456.10
2022-12-08T22:23:33.436Z,100448.33
2022-12-08T22:26:23.364Z,100442.39
2022-12-08T22:29:13.350Z,100443.10
2022-12-08T22:32:03.548Z,100444.63
2022-12-08T22:34:54.071Z,100441.05
2022-12-08T22:37:44.039Z,100440.22
2022-12-08T22:40:34.204Z,100439.16
2022-12-08T22:43:24.769Z,100434.33
2022-12-08T22:46:18.611Z,100429.89
2022-12-08T22:49:08.801Z,100429.39
2022-12-08T22:51:59.132Z,100425.83
2022-12-08T22:54:48.908Z,100421.33
2022-12-08T22:57:38.986Z,100416.70
2022-12-08T23:00:29.987Z,100421.59
2022-12-08T23:03:20.321Z,100422.96
2022-12-08T23:06:17.055Z,100423.88
2022-12-08T23:09:08.659Z,100421.27
2022-12-08T23:11:59.650Z,100412.29
2022-12-08T23:14:49.984Z,100404.77
2022-12-08T23:17:39.994Z,100403.42
2022-12-08T23:20:30.273Z,100406.72
2022-12-08T23:23:19.998Z,100401.15
2022-12-08T23:26:17.554Z,100389.73
2022-12-08T23:29:07.728Z,100385.08
2022-12-08T23:31:57.850Z,100383.83
2022-12-08T23:34:48.079Z,100386.20
2022-12-08T23:37:38.352Z,100380.11
2022-12-08T23:40:28.974Z,100373.02
2022-12-08T23:43:18.832Z,100372.23
2022-12-08T23:46:09.789Z,100370.45
2022-12-08T23:49:00.872Z,100367.58
2022-12-08T23:51:50.491Z,100362.58
2022-12-08T23:54:41.455Z,100364.27
2022-12-08T23:57:31.173Z,100371.65
